American Capital Mortgage In (MTGE) Latest Bloomsberg Price


Mffais Ranking #2107 Overall / #38 Industry
Industry: Mortgage Finance

Number of Companies: 81 (Ranking #1887 Overall/#26 Industry)
Inflow: $ 24,010 (K) (Ranking #1667 Overall/#20 Industry)
Outflow: $ -47,459 (K)
Mffais Flow: $ -23,449 (K) (Ranking #2107 Overall/#38 Industry)


Receive a FREE weekly executive review of stocks moving into the top 10, taking the top industy spot or moving up within their industry. Sent directly to your Inbox every Saturday. Sign up today and get last week's review immediately sent to you.

We value and respect your privacy. Please read our Terms and Conditions which states our firm commitment to your privacy. Your email address will not be shared with a third party, nor will it be sold or used for purposes other than subscription for the weekly review.

Owner CPOR Shares Action Qty Chg Invested (K) Total Current Value (K)
Clough Capital Partners L P 2016-09-30 1,187,228 Added More 484,400 $ 7,847 $ 19,233
Global X Management Co Llc 2016-09-30 776,835 Added More 227,977 $ 3,693 $ 12,584
Martingale Asset Management L P 2016-09-30 270,473 Added More 226,852 $ 3,675 $ 4,381
Chicago Equity Partners Llc 2016-09-30 200,750 New Holding 200,750 $ 3,252 $ 3,252
Bessemer Group Inc 2016-09-30 88,400 New Holding 88,400 $ 1,432 $ 1,432
Thrivent Financial For Lutherans 2016-09-30 47,560 New Holding 47,560 $ 770 $ 770
Yorktown Management Research Co Inc 2016-09-30 400,000 Added More 40,000 $ 648 $ 6,480
Emerald Acquisition Ltd 2016-09-30 63,607 Added More 37,012 $ 599 $ 1,030
Stockman Asset Management 2016-09-30 30,325 New Holding 30,325 $ 491 $ 491
Jane Street Group Llc 2016-09-30 25,578 New Holding 25,578 $ 414 $ 414
Clarivest Asset Management Llc 2016-09-30 16,562 New Holding 16,562 $ 268 $ 268
Eqis Capital Management Inc 2016-09-30 15,006 New Holding 15,006 $ 243 $ 243
Weiss Asset Management Lp 2016-09-30 12,935 New Holding 12,935 $ 209 $ 209
Indexiq Advisors Llc 2016-09-30 45,505 Added More 9,021 $ 146 $ 737
Sei Investments Co 2016-09-30 18,385 Added More 6,656 $ 107 $ 297
Raymond James Associates 2016-09-30 57,446 Added More 2,956 $ 47 $ 930
Springbok Capital Management Llc 2016-09-30 2,700 New Holding 2,700 $ 43 $ 43
Aperio Group Llc 2016-09-30 49,702 Added More 2,240 $ 36 $ 805
Blackrock Inc 2016-09-30 14,803 Added More 1,336 $ 21 $ 239
Gsa Capital Partners Llp 2016-09-30 12,094 Added More 1,162 $ 18 $ 195
California State Teachers Retirement System 2016-09-30 97,383 Added More 900 $ 14 $ 1,577
Stifel Financial Corp 2016-09-30 10,876 Added More 633 $ 10 $ 176
Camelot Portfolios Llc 2016-09-30 56,375 Added More 588 $ 9 $ 913
Salem Investment Counselors Inc 2016-09-30 500 New Holding 500 $ 8 $ 8
Advisory Services Network Llc 2016-09-30 365 Added More 100 $ 1 $ 5
Zurcher Kantonalbank Zurich Cantonalbank 2016-09-30 2,918 No Change 0 $ 0 $ 47
Css Llc Il 2016-09-30 18,000 No Change 0 $ 0 $ 291
Us Bancorp De 2016-09-30 523 No Change 0 $ 0 $ 8
Nationwide Fund Advisors 2016-09-30 31,636 No Change 0 $ 0 $ 512
New York State Common Retirement Fund 2016-09-30 50,300 No Change 0 $ 0 $ 814
American Financial Group Inc 2016-09-30 1,233,300 No Change 0 $ 0 $ 19,979
Teachers Retirement System Of The State Of Kentucky 2016-09-30 40,136 No Change 0 $ 0 $ 650
Whitebox Advisors Llc 2016-09-30 2,140,385 No Change 0 $ 0 $ 34,674
Kanaly Trust Co 2016-09-30 200 No Change 0 $ 0 $ 3
Cutler Group Lp 2016-09-30 0 Sold All -100 $ -1 $ 0
Advisor Group Inc 2016-09-30 3,167 Sold Some -103 $ -1 $ 51
Ladenburg Thalmann Financial Services Inc 2016-09-30 2,900 Sold Some -152 $ -2 $ 46
Citizens Financial Group Inc Ri 2016-09-30 0 Sold All -258 $ -4 $ 0
Legal General Group Plc 2016-09-30 6,551 Sold Some -381 $ -6 $ 106
Benjamin F Edwards Company Inc 2016-09-30 0 Sold All -500 $ -8 $ 0
Parkside Financial Bank Trust 2016-09-30 0 Sold All -526 $ -8 $ 0
Penserra Capital Management Llc 2016-09-30 0 Sold All -532 $ -8 $ 0
Integrated Investment Consultants Llc 2016-09-30 0 Sold All -600 $ -9 $ 0
Ifp Advisors Inc 2016-09-30 0 Sold All -625 $ -10 $ 0
Blackrock Investment Management Llc 2016-09-30 194,749 Sold Some -764 $ -12 $ 3,154
Tower Research Capital Llc Trc 2016-09-30 0 Sold All -780 $ -12 $ 0
Monetary Management Group Inc 2016-09-30 0 Sold All -1,250 $ -20 $ 0
Msi Financial Services Inc 2016-09-30 906 Sold Some -2,571 $ -41 $ 14
Silver Capital Management Llc 2016-09-30 46,920 Sold Some -3,690 $ -59 $ 760
Guggenheim Capital Llc 2016-09-30 195,026 Sold Some -3,764 $ -60 $ 3,159
Capital Fund Management S A 2016-09-30 17,239 Sold Some -3,952 $ -64 $ 279
Sg Americas Securities Llc 2016-09-30 7,618 Sold Some -4,531 $ -73 $ 123
Pnc Financial Services Group Inc 2016-09-30 13,556 Sold Some -5,120 $ -82 $ 219
Teacher Retirement System Of Texas 2016-09-30 0 Sold All -6,364 $ -103 $ 0
Creative Planning 2016-09-30 0 Sold All -6,648 $ -107 $ 0
Swiss National Bank 2016-09-30 76,600 Sold Some -9,300 $ -150 $ 1,240
Advisors Asset Management Inc 2016-09-30 0 Sold All -9,750 $ -157 $ 0
Advent Capital Management De 2016-09-30 0 Sold All -10,000 $ -162 $ 0
Twin Tree Management Lp 2016-09-30 0 Sold All -10,000 $ -162 $ 0
Quantitative Systematic Strategies Llc 2016-09-30 0 Sold All -10,317 $ -167 $ 0
A R T Advisors Llc 2016-09-30 0 Sold All -14,888 $ -241 $ 0
Strs Ohio 2016-09-30 0 Sold All -15,500 $ -251 $ 0
State Of New Jersey Common Pension Fund D 2016-09-30 0 Sold All -26,000 $ -421 $ 0
American International Group Inc 2016-09-30 0 Sold All -26,488 $ -429 $ 0
Deere Co 2016-09-30 0 Sold All -29,139 $ -472 $ 0
Northern Trust Corp 2016-09-30 467,211 Sold Some -34,969 $ -566 $ 7,568
Wasatch Advisors Inc 2016-09-30 0 Sold All -36,400 $ -589 $ 0
Hillsdale Investment Management Inc 2016-09-30 0 Sold All -38,000 $ -615 $ 0
Great Lakes Advisors Llc 2016-09-30 137,484 Sold Some -38,743 $ -627 $ 2,227
Driehaus Capital Management Llc 2016-09-30 0 Sold All -51,300 $ -831 $ 0
Pyrrho Capital Management Lp 2016-09-30 0 Sold All -55,000 $ -891 $ 0
Rhumbline Advisers 2016-09-30 0 Sold All -58,530 $ -948 $ 0
Tricadia Capital Management Llc 2016-09-30 0 Sold All -75,000 $ -1,215 $ 0
Teachers Advisors Llc 2016-09-30 0 Sold All -78,030 $ -1,264 $ 0
Van Eck Associates Corp 2016-09-30 0 Sold All -122,092 $ -1,977 $ 0
Blackstone Group L P 2016-09-30 0 Sold All -131,056 $ -2,123 $ 0
Grs Advisors Llc 2016-09-30 352,200 Sold Some -137,000 $ -2,219 $ 5,705
Talkot Capital Llc 2016-09-30 264,417 Sold Some -185,583 $ -3,006 $ 4,283
Parametric Portfolio Associates Llc 2016-09-30 0 Sold All -229,604 $ -3,719 $ 0
Krv Capital Lp 2016-09-30 0 Sold All -298,114 $ -4,829 $ 0
Clear Harbor Asset Management Llc 2016-09-30 0 Sold All -1,155,610 $ -18,720 $ 0